tititudorancea.com
Station Historical Data
Daily Summary for January 12, 2019 Units:  Metric    English   Both
« Previous Day
Next Day »
Daily Weekly Monthly Yearly Custom
  High: Low: Average:
Temperature: -17.8 °C 13.1 °C 20.9 °C
Dew Point: -17.8 °C 4.9 °C 8.9 °C
Humidity: Humidity % 33 % 48 %
Wind Speed: 0 km/h 0 km/h 17.7 km/h
Wind Gust: 0 km/h - -
Wind:- - South
Pressure: 0 hPa 1009.4 hPa -
Precipitation: 0 mm    
Historical Graphs
 
 
Ararat weather Find more about Weather in Ararat, AU


 



 


Tabular Data for January 12, 2019
Time Temperature Dew Point Pressure Wind Wind Speed Wind Gust Humidity Rainfall Rate (Hourly)
-17.8 °C -17.8 °C 0 hPa Calm     Humidity % 0 mm
00:04 20.9 °C 7.2 °C 1010 hPa SSW 3.2 km/h 0.6 km/h 41 % 0 mm
00:09 20.8 °C 7.1 °C 1010 hPa SSW 5.6 km/h 3.4 km/h 41 % 0 mm
00:14 20.9 °C 6.8 °C 1010 hPa SSW 5.6 km/h 2.7 km/h 40 % 0 mm
00:19 21.1 °C 6.6 °C 1009.7 hPa SSW 1.6 km/h 1 km/h 39 % 0 mm
00:24 21.2 °C 6.7 °C 1009.7 hPa SSW 3.7 km/h 0.5 km/h 39 % 0 mm
00:29 21.1 °C 6.6 °C 1010 hPa SSW 3.7 km/h 2.6 km/h 39 % 0 mm
00:34 20.9 °C 6.8 °C 1010 hPa SSW 1.6 km/h   40 % 0 mm
00:39 20.6 °C 6.9 °C 1010 hPa SSW 3.7 km/h 1.4 km/h 41 % 0 mm
00:44 20.3 °C 7 °C 1010 hPa Calm     42 % 0 mm
00:49 20.2 °C 6.9 °C 1010 hPa Calm     42 % 0 mm
00:54 20 °C 7.1 °C 1009.7 hPa SSW 3.7 km/h 2.3 km/h 43 % 0 mm
00:59 19.7 °C 7.1 °C 1009.7 hPa Calm     44 % 0 mm
01:04 19.5 °C 7.2 °C 1009.7 hPa SSW 5.6 km/h 0.6 km/h 45 % 0 mm
01:09 19.3 °C 7.4 °C 1009.7 hPa SSW 6.4 km/h 4.7 km/h 46 % 0 mm
01:14 19.2 °C 7.3 °C 1009.7 hPa SSW 3.7 km/h 1 km/h 46 % 0 mm
01:19 19.1 °C 7.2 °C 1009.7 hPa North 1.9 km/h   46 % 0 mm
01:24 18.9 °C 7.4 °C 1009.7 hPa SSW 1.6 km/h 0.3 km/h 47 % 0 mm
01:29 18.7 °C 7.5 °C 1009.7 hPa Calm     48 % 0 mm
01:34 18.6 °C 7.4 °C 1009.7 hPa Calm     48 % 0 mm
01:39 18.4 °C 7.5 °C 1009.7 hPa SSW 1.6 km/h 0.5 km/h 49 % 0 mm
01:44 18.2 °C 7.6 °C 1009.7 hPa Calm     50 % 0 mm
01:49 18 °C 7.4 °C 1009.7 hPa Calm     50 % 0 mm
01:54 17.8 °C 7.5 °C 1009.7 hPa Calm     51 % 0 mm
01:59 17.5 °C 7.6 °C 1009.7 hPa Calm     52 % 0 mm
02:04 17.3 °C 7.7 °C 1009.7 hPa Calm     53 % 0 mm
02:09 17.2 °C 7.8 °C 1009.7 hPa Calm     54 % 0 mm
02:14 17 °C 7.9 °C 1009.7 hPa Calm     55 % 0 mm
02:19 16.9 °C 7.8 °C 1009.7 hPa Calm     55 % 0 mm
02:24 16.8 °C 8 °C 1009.7 hPa Calm     56 % 0 mm
02:29 16.8 °C 8 °C 1009.7 hPa Calm     56 % 0 mm
02:34 16.8 °C 8 °C 1009.7 hPa Calm     56 % 0 mm
02:39 16.8 °C 8 °C 1009.7 hPa Calm     56 % 0 mm
02:44 16.9 °C 7.8 °C 1009.7 hPa Calm     55 % 0 mm
02:49 16.9 °C 8.1 °C 1009.7 hPa Calm     56 % 0 mm
02:54 17 °C 8.2 °C 1009.4 hPa Calm     56 % 0 mm
02:59 17 °C 8.2 °C 1009.4 hPa Calm     56 % 0 mm
03:04 17 °C 8.4 °C 1009.4 hPa Calm     57 % 0 mm
03:09 17 °C 8.4 °C 1009.4 hPa Calm     57 % 0 mm
03:14 17 °C 8.4 °C 1009.4 hPa Calm     57 % 0 mm
03:19 16.9 °C 8.9 °C 1009.4 hPa Calm     59 % 0 mm
03:24 16.9 °C 8.3 °C 1009.4 hPa Calm     57 % 0 mm
03:29 16.9 °C 8.3 °C 1009.4 hPa Calm     57 % 0 mm
03:34 16.8 °C 8.4 °C 1009.4 hPa Calm     58 % 0 mm
03:39 16.7 °C 8.7 °C 1009.4 hPa SSW 5.6 km/h 3.2 km/h 59 % 0 mm
03:44 16.7 °C 8.6 °C 1009.7 hPa SSW 1.9 km/h   59 % 0 mm
03:49 16.6 °C 8.6 °C 1009.4 hPa Calm     59 % 0 mm
03:54 16.5 °C 8.4 °C 1009.4 hPa Calm     59 % 0 mm
03:59 16.4 °C 8.6 °C 1009.4 hPa Calm     60 % 0 mm
04:04 16.2 °C 8.4 °C 1009.4 hPa Calm     60 % 0 mm
04:09 16 °C 8.5 °C 1009.7 hPa Calm     61 % 0 mm
04:14 16 °C 8.5 °C 1009.7 hPa SSW 5.6 km/h 2.3 km/h 61 % 0 mm
04:19 16.2 °C 8.7 °C 1009.7 hPa Calm     61 % 0 mm
04:24 16.4 °C 8.6 °C 1009.7 hPa Calm     60 % 0 mm
04:29 16.4 °C 8.7 °C 1010 hPa SSW 5.6 km/h 2.6 km/h 60 % 0 mm
04:34 16.6 °C 8.8 °C 1010 hPa Calm     60 % 0 mm
04:39 16.6 °C 8.5 °C 1010 hPa Calm     59 % 0 mm
04:44 16.6 °C 8.8 °C 1010 hPa Calm     60 % 0 mm
04:49 16.5 °C 8.4 °C 1010.4 hPa Calm     59 % 0 mm
04:54 16.5 °C 8.4 °C 1010.4 hPa Calm     59 % 0 mm
04:59 16.4 °C 8.6 °C 1010.4 hPa Calm     60 % 0 mm
05:04 16.3 °C 8.5 °C 1010.4 hPa Calm     60 % 0 mm
05:09 16.2 °C 8.6 °C 1010.4 hPa Calm     61 % 0 mm
05:14 16.2 °C 8.9 °C 1011.1 hPa Calm     62 % 0 mm
05:19 16.1 °C 8.8 °C 1010.7 hPa Calm     62 % 0 mm
05:24 16.2 °C 8.7 °C 1011.1 hPa SSW 3.7 km/h 1.6 km/h 61 % 0 mm
05:29 16.2 °C 8.7 °C 1011.1 hPa Calm     61 % 0 mm
05:34 16.1 °C 8.6 °C 1011.1 hPa Calm     61 % 0 mm
05:39 16 °C 8.7 °C 1011.4 hPa Calm     62 % 0 mm
05:44 15.9 °C 8.6 °C 1011.4 hPa Calm     62 % 0 mm
05:49 15.8 °C 8.5 °C 1011.4 hPa Calm     62 % 0 mm
05:54 15.7 °C 8.7 °C 1011.4 hPa Calm     63 % 0 mm
05:59 15.5 °C 8.5 °C 1011.7 hPa SSW 5.6 km/h 3.7 km/h 63 % 0 mm
06:04 15.5 °C 8.5 °C 1012.1 hPa SSW 1.9 km/h   63 % 0 mm
06:09 15.4 °C 8.2 °C 1012.1 hPa SSW 3.7 km/h 3.4 km/h 62 % 0 mm
06:14 15.4 °C 8.4 °C 1012.1 hPa SSW 3.7 km/h 2.4 km/h 63 % 0 mm
06:19 15.3 °C 8.3 °C 1012.1 hPa SSW 1.9 km/h 0.2 km/h 63 % 0 mm
06:24 15.3 °C 8.3 °C 1012.1 hPa SSW 5.6 km/h 1.9 km/h 63 % 0 mm
06:29 15.2 °C 8 °C 1012.4 hPa SSW 3.7 km/h 3.1 km/h 62 % 0 mm
06:34 15.2 °C 7.9 °C 1012.4 hPa SSW 3.7 km/h 2.6 km/h 62 % 0 mm
06:39 15.2 °C 7.7 °C 1012.4 hPa SSW 3.7 km/h 0.3 km/h 61 % 0 mm
06:44 15.2 °C 7.7 °C 1012.8 hPa SSW 3.7 km/h 0.5 km/h 61 % 0 mm
06:49 15.3 °C 7.8 °C 1012.8 hPa SSW 5.6 km/h 4 km/h 61 % 0 mm
06:54 15.4 °C 8.2 °C 1012.8 hPa SSW 5.6 km/h 2.4 km/h 62 % 0 mm
06:59 15.6 °C 8.1 °C 1012.8 hPa SSW 3.7 km/h 4.2 km/h 61 % 0 mm
07:04 15.8 °C 8.5 °C 1012.8 hPa SSW 3.7 km/h 1.8 km/h 62 % 0 mm
07:09 16 °C 8.7 °C 1013.1 hPa SSW 6.4 km/h 4.2 km/h 62 % 0 mm
07:14 16.3 °C 9 °C 1012.8 hPa SSW 5.6 km/h 0.6 km/h 62 % 0 mm
07:19 16.6 °C 9.2 °C 1013.1 hPa SSW 3.7 km/h 2.6 km/h 62 % 0 mm
07:24 16.9 °C 9.4 °C 1013.1 hPa SSW 5.6 km/h 3.2 km/h 61 % 0 mm
07:29 17.3 °C 9.4 °C 1013.1 hPa SSW 3.7 km/h 0.8 km/h 60 % 0 mm
07:34 17.6 °C 9.7 °C 1013.1 hPa SSW 5.6 km/h 3.4 km/h 60 % 0 mm
07:39 17.7 °C 9.8 °C 1013.1 hPa SSW 5.6 km/h 3.5 km/h 60 % 0 mm
07:44 17.9 °C 10 °C 1013.1 hPa SSW 1.9 km/h 0.2 km/h 60 % 0 mm
07:49 18.1 °C 9.9 °C 1013.1 hPa SSW 5.6 km/h 2.9 km/h 59 % 0 mm
07:54 18.2 °C 9.8 °C 1013.1 hPa SSW 7.4 km/h 2.3 km/h 58 % 0 mm
07:59 18.4 °C 10 °C 1013.4 hPa SSW 5.6 km/h 4.2 km/h 58 % 0 mm
08:04 18.6 °C 10.1 °C 1013.4 hPa SSW 3.7 km/h 5.5 km/h 58 % 0 mm
08:09 18.8 °C 10.3 °C 1013.4 hPa SSW 5.6 km/h 4.8 km/h 58 % 0 mm
08:14 19 °C 10.3 °C 1013.4 hPa SSW 11.1 km/h 6.8 km/h 57 % 0 mm
08:19 19.2 °C 10.4 °C 1013.4 hPa South 13 km/h 7.6 km/h 57 % 0 mm
08:24 19.3 °C 10.3 °C 1013.4 hPa South 14.8 km/h 11.1 km/h 56 % 0 mm
08:29 19.4 °C 10.7 °C 1013.4 hPa South 13 km/h 9.5 km/h 57 % 0 mm
08:34 19.5 °C 10.5 °C 1013.4 hPa South 11.1 km/h 6.9 km/h 56 % 0 mm
08:39 19.7 °C 10.7 °C 1013.4 hPa South 16.7 km/h 8.9 km/h 56 % 0 mm
08:42 19.9 °C 10.8 °C 1013.4 hPa SSW 13 km/h 9.7 km/h 56 % 0 mm
09:44 22.2 °C 11 °C 1013.8 hPa South 18.5 km/h 11.6 km/h 49 % 0 mm
09:49 22.4 °C 11.2 °C 1013.8 hPa SSE 20.9 km/h 12.6 km/h 49 % 0 mm
09:54 22.4 °C 11.2 °C 1013.8 hPa South 18.5 km/h 10.6 km/h 49 % 0 mm
09:59 22.4 °C 11.4 °C 1013.8 hPa South 14.8 km/h 9 km/h 50 % 0 mm
10:04 22.7 °C 11.4 °C 1013.8 hPa South 16.7 km/h 9.5 km/h 49 % 0 mm
10:09 22.9 °C 11.7 °C 1013.8 hPa South 18.5 km/h 10.5 km/h 49 % 0 mm
10:14 23.2 °C 11.6 °C 1013.8 hPa South 16.7 km/h 10 km/h 48 % 0 mm
10:19 23.2 °C 11.8 °C 1013.8 hPa South 14.8 km/h 12.1 km/h 49 % 0 mm
10:24 23.5 °C 12.5 °C 1013.8 hPa South 18.5 km/h 14.8 km/h 50 % 0 mm
10:29 23.7 °C 12 °C 1013.8 hPa South 18.5 km/h 10.6 km/h 48 % 0 mm
10:34 23.7 °C 11.3 °C 1013.8 hPa South 14.8 km/h 9.5 km/h 46 % 0 mm
10:39 23.6 °C 11.3 °C 1013.8 hPa South 18.5 km/h 15.1 km/h 46 % 0 mm
10:44 23.8 °C 11.5 °C 1013.4 hPa South 18.5 km/h 12.2 km/h 46 % 0 mm
10:49 24 °C 11.7 °C 1013.4 hPa SE 29.6 km/h 14 km/h 46 % 0 mm
10:54 24.5 °C 11.8 °C 1013.4 hPa South 18.5 km/h 12.9 km/h 45 % 0 mm
10:59 24.5 °C 11.8 °C 1013.4 hPa South 22.2 km/h 13.2 km/h 45 % 0 mm
11:04 24.6 °C 11.2 °C 1013.4 hPa SSE 14.8 km/h 12.1 km/h 43 % 0 mm
11:09 25.1 °C 12.3 °C 1013.4 hPa SSE 14.8 km/h 10.8 km/h 45 % 0 mm
11:14 25.7 °C 12.2 °C 1013.1 hPa South 14.8 km/h 13.4 km/h 43 % 0 mm
11:19 26.1 °C 11.8 °C 1013.1 hPa SSE 22.2 km/h 14.6 km/h 41 % 0 mm
11:24 26.1 °C 11.8 °C 1013.1 hPa SE 17.7 km/h 14.3 km/h 41 % 0 mm
11:29 26.3 °C 12.4 °C 1013.1 hPa South 16.7 km/h 7.7 km/h 42 % 0 mm
11:34 26.5 °C 11.4 °C 1013.4 hPa South 24.1 km/h 16.4 km/h 39 % 0 mm
11:39 26.2 °C 10.8 °C 1013.4 hPa SSE 24.1 km/h 13.4 km/h 38 % 0 mm
11:44 26.3 °C 11.7 °C 1013.4 hPa South 18.5 km/h 12.1 km/h 40 % 0 mm
11:49 26.3 °C 11.7 °C 1013.1 hPa SE 30.6 km/h 20.1 km/h 40 % 0 mm
11:54 26.8 °C 12.4 °C 1013.1 hPa South 19.3 km/h 10.1 km/h 41 % 0 mm
11:59 26.8 °C 11.7 °C 1013.1 hPa SSE 18.5 km/h 13.2 km/h 39 % 0 mm
12:04 26.8 °C 12.5 °C 1013.1 hPa SSE 22.2 km/h 13.8 km/h 41 % 0 mm
12:09 26.8 °C 12.1 °C 1013.1 hPa SSW 16.7 km/h 14.8 km/h 40 % 0 mm
12:14 26.7 °C 12 °C 1013.4 hPa SSE 27.8 km/h 18.8 km/h 40 % 0 mm
12:19 26.9 °C 12.5 °C 1013.4 hPa South 22.2 km/h 13.4 km/h 41 % 0 mm
12:24 27 °C 12.2 °C 1013.4 hPa South 18.5 km/h 13.2 km/h 40 % 0 mm
12:29 27.4 °C 12.3 °C 1013.1 hPa SSE 18.5 km/h 13.7 km/h 39 % 0 mm
12:34 28 °C 11.9 °C 1013.4 hPa South 18.5 km/h 12.9 km/h 37 % 0 mm
12:39 27.7 °C 12.1 °C 1013.1 hPa SE 31.5 km/h 18.5 km/h 38 % 0 mm
12:44 27.6 °C 11.6 °C 1013.1 hPa South 19.3 km/h 11.9 km/h 37 % 0 mm
12:49 28 °C 11.6 °C 1013.1 hPa SSW 29.6 km/h 16.4 km/h 36 % 0 mm
12:54 28 °C 11.6 °C 1013.1 hPa SSW 25.9 km/h 13.8 km/h 36 % 0 mm
12:59 28.1 °C 11.2 °C 1013.1 hPa South 18.5 km/h 15.3 km/h 35 % 0 mm
13:04 28.2 °C 10.9 °C 1013.1 hPa SSW 25.7 km/h 17.1 km/h 34 % 0 mm
13:09 28.2 °C 10.9 °C 1013.1 hPa SW 20.4 km/h 11.7 km/h 34 % 0 mm
13:14 28.2 °C 10.4 °C 1013.1 hPa SSE 22.2 km/h 12.4 km/h 33 % 0 mm
13:19 28.3 °C 10.9 °C 1013.1 hPa South 19.3 km/h 14.5 km/h 34 % 0 mm
13:24 28.6 °C 10.8 °C 1013.1 hPa SSW 18.5 km/h 17.4 km/h 33 % 0 mm
13:29 28.8 °C 11.3 °C 1012.8 hPa SSE 13 km/h 11.4 km/h 34 % 0 mm
13:34 29 °C 11.6 °C 1012.8 hPa SSW 24.1 km/h 17.1 km/h 34 % 0 mm
13:39 28.6 °C 10.8 °C 1012.8 hPa South 20.4 km/h 11.3 km/h 33 % 0 mm
13:44 28.7 °C 11.3 °C 1012.8 hPa SSW 20.4 km/h 16.6 km/h 34 % 0 mm
13:49 28.6 °C 11.2 °C 1012.8 hPa SSW 20.4 km/h 12.7 km/h 34 % 0 mm
13:54 28.7 °C 11.3 °C 1012.8 hPa SSW 27.4 km/h 18.8 km/h 34 % 0 mm
13:59 28.7 °C 11.3 °C 1012.8 hPa South 29.6 km/h 23.5 km/h 34 % 0 mm
14:04 28.9 °C 11 °C 1012.8 hPa SSW 27.4 km/h 17.1 km/h 33 % 0 mm
14:09 28.9 °C 11.5 °C 1012.8 hPa SW 24.1 km/h 19.5 km/h 34 % 0 mm
14:14 28.9 °C 11.9 °C 1012.8 hPa South 22.2 km/h 12.4 km/h 35 % 0 mm
14:19 29.1 °C 12.1 °C 1012.8 hPa SSE 22.2 km/h 17.5 km/h 35 % 0 mm
14:24 29.2 °C 11.7 °C 1012.8 hPa SW 31.5 km/h 17.7 km/h 34 % 0 mm
14:29 29 °C 12 °C 1012.8 hPa South 25.9 km/h 15.3 km/h 35 % 0 mm
14:34 29 °C 12 °C 1012.8 hPa South 22.2 km/h 16.4 km/h 35 % 0 mm
14:39 29.2 °C 11.7 °C 1012.8 hPa South 22.5 km/h 16.7 km/h 34 % 0 mm
14:44 29 °C 12 °C 1012.8 hPa South 25.9 km/h 16.7 km/h 35 % 0 mm
14:49 28.9 °C 11.9 °C 1012.8 hPa South 25.7 km/h 16.3 km/h 35 % 0 mm
14:54 28.9 °C 11.9 °C 1012.8 hPa SSW 24.1 km/h 20.9 km/h 35 % 0 mm
14:59 29.1 °C 12.1 °C 1012.8 hPa South 29.6 km/h 8.9 km/h 35 % 0 mm
15:04 29.2 °C 12.1 °C 1013.1 hPa SSW 25.9 km/h 10.6 km/h 35 % 0 mm
15:09 29.1 °C 12.1 °C 1012.8 hPa South 27.8 km/h 15 km/h 35 % 0 mm
15:14 29.4 °C 11.9 °C 1013.1 hPa SSE 22.2 km/h 15 km/h 34 % 0 mm
15:19 29.5 °C 12 °C 1013.1 hPa South 25.9 km/h 15.1 km/h 34 % 0 mm
15:24 28.9 °C 11.9 °C 1013.1 hPa SSW 31.5 km/h 19.3 km/h 35 % 0 mm
15:29 28.7 °C 11.7 °C 1013.1 hPa South 27.8 km/h 18.8 km/h 35 % 0 mm
15:34 28.6 °C 11.6 °C 1013.1 hPa SSW 38.9 km/h 18 km/h 35 % 0 mm
15:39 28.3 °C 11.3 °C 1013.1 hPa SSW 29.6 km/h 22.4 km/h 35 % 0 mm
15:44 28.4 °C 11.5 °C 1013.4 hPa SSW 35.2 km/h 23.7 km/h 35 % 0 mm
15:49 28.4 °C 11.5 °C 1013.4 hPa South 33.3 km/h 17.2 km/h 35 % 0 mm
15:54 28.3 °C 11.4 °C 1013.4 hPa SSW 18.5 km/h 14.6 km/h 35 % 0 mm
15:59 27.9 °C 11.4 °C 1013.4 hPa SSW 35.2 km/h 26.4 km/h 36 % 0 mm
16:04 27.4 °C 11.1 °C 1013.4 hPa South 46.3 km/h 21.1 km/h 36 % 0 mm
16:09 27.6 °C 11.2 °C 1013.8 hPa SW 31.5 km/h 24.5 km/h 36 % 0 mm
16:14 27.5 °C 10.7 °C 1013.4 hPa SSE 37 km/h 25.1 km/h 35 % 0 mm
16:19 27.2 °C 10.8 °C 1013.8 hPa SSE 30.6 km/h 25.6 km/h 36 % 0 mm
16:24 27 °C 10.7 °C 1013.8 hPa SSW 42.6 km/h 29 km/h 36 % 0 mm
16:29 26.7 °C 10.4 °C 1013.8 hPa SSW 37 km/h 22.2 km/h 36 % 0 mm
16:34 26.8 °C 10.5 °C 1013.8 hPa SSW 31.5 km/h 22.5 km/h 36 % 0 mm
16:39 26.8 °C 10.4 °C 1013.8 hPa SE 35.2 km/h 17.5 km/h 36 % 0 mm
16:44 26.9 °C 10.1 °C 1013.8 hPa South 25.9 km/h 26.2 km/h 35 % 0 mm
16:49 26.4 °C 9.7 °C 1013.8 hPa South 29.6 km/h 12.6 km/h 35 % 0 mm
16:54 26.4 °C 10.1 °C 1014.1 hPa South 30.6 km/h 19.2 km/h 36 % 0 mm
16:59 26.2 °C 9.6 °C 1013.8 hPa South 35.4 km/h 18.7 km/h 35 % 0 mm
17:04 26.1 °C 8.9 °C 1014.1 hPa SSW 38.9 km/h 19.8 km/h 34 % 0 mm
17:09 26.1 °C 8.9 °C 1014.1 hPa SE 27.8 km/h 20.1 km/h 34 % 0 mm
17:14 25.8 °C 8.3 °C 1014.1 hPa SSW 42.6 km/h 23.2 km/h 33 % 0 mm
17:19 25.6 °C 8.1 °C 1014.1 hPa South 38.9 km/h 23.7 km/h 33 % 0 mm
17:24 25.5 °C 8.1 °C 1014.4 hPa South 42.6 km/h 26.9 km/h 33 % 0 mm
17:29 25.5 °C 8.1 °C 1014.4 hPa South 29.6 km/h 24 km/h 33 % 0 mm
17:34 25.1 °C 8.1 °C 1014.4 hPa South 33.3 km/h 19.3 km/h 34 % 0 mm
17:39 25 °C 8.1 °C 1014.4 hPa South 37 km/h 20.8 km/h 34 % 0 mm
17:44 24.9 °C 7.9 °C 1014.4 hPa SSE 31.5 km/h 18.7 km/h 34 % 0 mm
17:49 25.1 °C 8.2 °C 1014.4 hPa SSW 37 km/h 21.4 km/h 34 % 0 mm
17:54 24.7 °C 7.7 °C 1014.4 hPa SSW 40.7 km/h 28 km/h 34 % 0 mm
17:59 24.4 °C 7.9 °C 1014.8 hPa South 25.9 km/h 20.4 km/h 35 % 0 mm
18:04 24.1 °C 7.3 °C 1014.8 hPa South 33.3 km/h 17.9 km/h 34 % 0 mm
18:09 24 °C 7.6 °C 1014.8 hPa South 27.8 km/h 16.7 km/h 35 % 0 mm
18:14 23.8 °C 7.4 °C 1014.8 hPa SSE 38.9 km/h 25.9 km/h 35 % 0 mm
18:19 23.7 °C 7.3 °C 1015.1 hPa South 38.9 km/h 21.7 km/h 35 % 0 mm
18:24 23.7 °C 7.3 °C 1015.1 hPa South 31.5 km/h 19.3 km/h 35 % 0 mm
18:29 23.8 °C 7.4 °C 1015.1 hPa SSE 27.8 km/h 14 km/h 35 % 0 mm
18:34 23.6 °C 6.8 °C 1015.1 hPa SSE 40.7 km/h 15.6 km/h 34 % 0 mm
18:39 23.3 °C 6.6 °C 1015.1 hPa SSE 42.6 km/h 28.3 km/h 34 % 0 mm
18:44 23.1 °C 6.8 °C 1015.1 hPa North 31.5 km/h 19.8 km/h 35 % 0 mm
18:49 23.3 °C 6.9 °C 1015.1 hPa SSW 18.5 km/h 13.8 km/h 35 % 0 mm
18:54 23 °C 6.3 °C 1015.1 hPa South 38.9 km/h 24.5 km/h 34 % 0 mm
18:59 22.9 °C 6.2 °C 1015.1 hPa SSW 32.2 km/h 23.5 km/h 34 % 0 mm
19:04 22.8 °C 6.6 °C 1015.5 hPa SSW 27.8 km/h 20.4 km/h 35 % 0 mm
19:09 22.4 °C 6.6 °C 1015.5 hPa SSW 43.5 km/h 26.9 km/h 36 % 0 mm
19:14 22.2 °C 6.4 °C 1015.5 hPa South 35.2 km/h 19.8 km/h 36 % 0 mm
19:19 22.2 °C 6.8 °C 1015.5 hPa SSE 38.9 km/h 19 km/h 37 % 0 mm
19:24 22 °C 6.2 °C 1015.8 hPa South 33.3 km/h 20.4 km/h 36 % 0 mm
19:29 21.9 °C 6.6 °C 1015.8 hPa SSE 29.6 km/h 20.6 km/h 37 % 0 mm
19:34 21.8 °C 6.1 °C 1015.8 hPa South 33.8 km/h 23 km/h 36 % 0 mm
19:39 21.6 °C 6.3 °C 1015.8 hPa South 38.9 km/h 21.9 km/h 37 % 0 mm
19:44 21.3 °C 6.4 °C 1016.1 hPa SSE 33.3 km/h 19.8 km/h 38 % 0 mm
19:49 21.2 °C 5.9 °C 1016.1 hPa South 29.6 km/h 22 km/h 37 % 0 mm
19:54 21.1 °C 5.8 °C 1016.1 hPa South 33.8 km/h 16.4 km/h 37 % 0 mm
19:59 20.9 °C 5.7 °C 1016.1 hPa South 31.5 km/h 17.5 km/h 37 % 0 mm
20:04 20.8 °C 5.9 °C 1016.5 hPa South 33.8 km/h 24 km/h 38 % 0 mm
20:09 20.6 °C 5.7 °C 1016.5 hPa SSW 37 km/h 26.7 km/h 38 % 0 mm
20:14 20.3 °C 5.2 °C 1016.5 hPa South 29.6 km/h 20.9 km/h 37 % 0 mm
20:19 20.2 °C 5 °C 1016.8 hPa South 37 km/h 22 km/h 37 % 0 mm
20:24 19.9 °C 5.2 °C 1016.5 hPa South 24.1 km/h 9.3 km/h 38 % 0 mm
20:29 19.7 °C 4.9 °C 1016.8 hPa South 35.2 km/h 21.2 km/h 38 % 0 mm
20:34 19.5 °C 5.6 °C 1016.8 hPa South 25.9 km/h 11.9 km/h 40 % 0 mm
20:39 19.2 °C 5.7 °C 1016.8 hPa South 27.8 km/h 14.2 km/h 41 % 0 mm
20:44 18.9 °C 6.1 °C 1017.2 hPa SSW 31.5 km/h 15.8 km/h 43 % 0 mm
20:49 18.7 °C 6.6 °C 1017.2 hPa South 29 km/h 14.6 km/h 45 % 0 mm
20:54 18.5 °C 6.3 °C 1017.2 hPa South 24.1 km/h 20 km/h 45 % 0 mm
20:59 18.3 °C 6.4 °C 1017.2 hPa South 22.2 km/h 15.6 km/h 46 % 0 mm
21:04 18.1 °C 6.9 °C 1017.2 hPa South 27.8 km/h 20.6 km/h 48 % 0 mm
21:09 17.8 °C 6.9 °C 1017.2 hPa South 24.1 km/h 17.1 km/h 49 % 0 mm
21:14 17.6 °C 6.8 °C 1017.2 hPa SSE 31.5 km/h 16.6 km/h 49 % 0 mm
21:19 17.4 °C 7.2 °C 1017.2 hPa South 31.5 km/h 19 km/h 51 % 0 mm
21:24 17.2 °C 7.2 °C 1017.5 hPa SSE 31.5 km/h 19.5 km/h 52 % 0 mm
21:29 16.9 °C 7.6 °C 1017.5 hPa South 33.3 km/h 15.9 km/h 54 % 0 mm
21:34 16.8 °C 7.7 °C 1017.8 hPa South 25.7 km/h 18.7 km/h 55 % 0 mm
21:39 16.6 °C 7.5 °C 1017.8 hPa South 27.8 km/h 15.8 km/h 55 % 0 mm
21:44 16.4 °C 7.4 °C 1017.8 hPa SSW 24.1 km/h 10.1 km/h 55 % 0 mm
21:49 16.3 °C 7.5 °C 1017.8 hPa South 20.9 km/h 16.1 km/h 56 % 0 mm
21:54 16.1 °C 7.3 °C 1017.8 hPa South 19.3 km/h 14 km/h 56 % 0 mm
21:59 15.9 °C 7.4 °C 1017.8 hPa South 29 km/h 18.2 km/h 57 % 0 mm
22:04 15.7 °C 7.5 °C 1017.8 hPa South 18.5 km/h 12.6 km/h 58 % 0 mm
22:09 15.6 °C 7.6 °C 1017.8 hPa South 25.9 km/h 17.2 km/h 59 % 0 mm
22:14 15.4 °C 7.7 °C 1017.8 hPa South 22.2 km/h 15.3 km/h 60 % 0 mm
22:19 15.3 °C 7.8 °C 1018.2 hPa SSE 22.2 km/h 16.1 km/h 61 % 0 mm
22:24 15.1 °C 7.9 °C 1018.2 hPa South 18.5 km/h 10.6 km/h 62 % 0 mm
22:29 15 °C 8 °C 1018.2 hPa SSE 29.6 km/h 15.1 km/h 63 % 0 mm
22:34 14.9 °C 8.1 °C 1018.2 hPa South 25.7 km/h 13.8 km/h 64 % 0 mm
22:39 14.8 °C 8.1 °C 1018.2 hPa SSE 20.4 km/h 14.2 km/h 64 % 0 mm
22:44 14.7 °C 8.2 °C 1018.2 hPa South 20.4 km/h 11.7 km/h 65 % 0 mm
22:49 14.5 °C 8.2 °C 1018.2 hPa South 22.2 km/h 17.4 km/h 66 % 0 mm
22:54 14.4 °C 8.3 °C 1018.2 hPa North 29.6 km/h 17.7 km/h 67 % 0 mm
22:59 14.3 °C 8.4 °C 1018.2 hPa SSE 30.6 km/h 17.4 km/h 68 % 0 mm
23:03 14.2 °C 8.6 °C 1018.2 hPa South 25.9 km/h 17.9 km/h 69 % 0 mm
23:09 14.1 °C 8.7 °C 1018.2 hPa South 31.5 km/h 17.5 km/h 70 % 0 mm
23:14 13.9 °C 8.8 °C 1018.2 hPa South 29.6 km/h 17.9 km/h 71 % 0 mm
23:19 13.8 °C 8.9 °C 1018.5 hPa South 20.4 km/h 10 km/h 72 % 0 mm
23:24 13.7 °C 8.9 °C 1018.5 hPa SSE 22.2 km/h 13.8 km/h 73 % 0 mm
23:29 13.6 °C 8.8 °C 1018.5 hPa South 22.2 km/h 18 km/h 73 % 0 mm
23:34 13.5 °C 8.9 °C 1018.5 hPa South 24.1 km/h 19 km/h 74 % 0 mm
23:39 13.4 °C 9.1 °C 1018.5 hPa North 24.1 km/h 11.7 km/h 75 % 0 mm
23:44 13.3 °C 9 °C 1018.5 hPa North 20.4 km/h 16.4 km/h 75 % 0 mm
23:49 13.2 °C 9.1 °C 1018.5 hPa SSE 27.8 km/h 11.7 km/h 76 % 0 mm
23:54 13.1 °C 9 °C 1018.2 hPa North 24.1 km/h 13.5 km/h 76 % 0 mm
23:59 13.1 °C 9.1 °C 1018.2 hPa SSE 24.1 km/h 14.2 km/h 77 % 0 mm
Ararat Weather
Compliments of Weather Underground - 2.25 mb
Click here to send mail.


ABOUT

Live weather data from Ararat, Victoria, Australia, 3377
Data uploaded from Cumulus every 5 minutes to Weather Underground.
This site then downloads the raw data for formatting and display.
Metric and imperial data can be displayed. Graphs and historical data available.
Includes Sun and Moon times and rain image live from BOM.

Check out Ararat Weather on Facebook, Twitter and Google +

Help support ongoing costs by checking out the ads





Follow @AraratWeather